sensor_id;sensor_type;location;lat;lon;timestamp;P1;durP1;ratioP1;P2;durP2;ratioP2
44139;SDS011;29803;51.048;4.686;2024-02-26T00:01:47;3.05;;;1.75;;
44139;SDS011;29803;51.048;4.686;2024-02-26T00:04:17;4.32;;;1.60;;
44139;SDS011;29803;51.048;4.686;2024-02-26T00:06:48;3.70;;;1.20;;
44139;SDS011;29803;51.048;4.686;2024-02-26T00:09:21;5.00;;;1.00;;
44139;SDS011;29803;51.048;4.686;2024-02-26T00:11:51;3.08;;;1.70;;
44139;SDS011;29803;51.048;4.686;2024-02-26T00:14:22;2.45;;;1.40;;
44139;SDS011;29803;51.048;4.686;2024-02-26T00:16:52;2.75;;;1.40;;
44139;SDS011;29803;51.048;4.686;2024-02-26T00:19:23;4.32;;;1.50;;
44139;SDS011;29803;51.048;4.686;2024-02-26T00:21:53;1.83;;;1.05;;
44139;SDS011;29803;51.048;4.686;2024-02-26T00:24:25;3.28;;;1.50;;
44139;SDS011;29803;51.048;4.686;2024-02-26T00:26:56;4.80;;;1.00;;
44139;SDS011;29803;51.048;4.686;2024-02-26T00:29:26;1.65;;;1.33;;
44139;SDS011;29803;51.048;4.686;2024-02-26T00:31:57;2.58;;;1.00;;
44139;SDS011;29803;51.048;4.686;2024-02-26T00:34:27;2.10;;;1.33;;
44139;SDS011;29803;51.048;4.686;2024-02-26T00:36:57;4.80;;;1.35;;
44139;SDS011;29803;51.048;4.686;2024-02-26T00:39:28;5.50;;;1.42;;
44139;SDS011;29803;51.048;4.686;2024-02-26T00:41:58;2.38;;;1.42;;
44139;SDS011;29803;51.048;4.686;2024-02-26T00:44:29;3.03;;;1.25;;
44139;SDS011;29803;51.048;4.686;2024-02-26T00:47:00;4.00;;;1.42;;
44139;SDS011;29803;51.048;4.686;2024-02-26T00:49:30;2.03;;;1.10;;
44139;SDS011;29803;51.048;4.686;2024-02-26T00:52:01;2.60;;;1.00;;
44139;SDS011;29803;51.048;4.686;2024-02-26T00:54:31;2.38;;;1.27;;
44139;SDS011;29803;51.048;4.686;2024-02-26T00:57:01;1.75;;;1.10;;
44139;SDS011;29803;51.048;4.686;2024-02-26T00:59:32;2.83;;;1.05;;
44139;SDS011;29803;51.048;4.686;2024-02-26T01:02:02;2.05;;;1.13;;
44139;SDS011;29803;51.048;4.686;2024-02-26T01:04:35;2.38;;;1.33;;
44139;SDS011;29803;51.048;4.686;2024-02-26T01:07:06;2.00;;;1.52;;
44139;SDS011;29803;51.048;4.686;2024-02-26T01:09:36;2.40;;;1.30;;
44139;SDS011;29803;51.048;4.686;2024-02-26T01:12:06;3.50;;;1.20;;
44139;SDS011;29803;51.048;4.686;2024-02-26T01:14:37;2.45;;;1.50;;
44139;SDS011;29803;51.048;4.686;2024-02-26T01:17:08;2.90;;;1.42;;
44139;SDS011;29803;51.048;4.686;2024-02-26T01:19:38;2.08;;;1.13;;
44139;SDS011;29803;51.048;4.686;2024-02-26T01:22:09;2.65;;;1.42;;
44139;SDS011;29803;51.048;4.686;2024-02-26T01:24:39;2.60;;;1.60;;
44139;SDS011;29803;51.048;4.686;2024-02-26T01:27:10;4.90;;;1.58;;
44139;SDS011;29803;51.048;4.686;2024-02-26T01:29:40;3.92;;;1.48;;
44139;SDS011;29803;51.048;4.686;2024-02-26T01:32:11;2.47;;;1.90;;
44139;SDS011;29803;51.048;4.686;2024-02-26T01:34:41;2.92;;;1.30;;
44139;SDS011;29803;51.048;4.686;2024-02-26T01:37:12;3.58;;;1.65;;
44139;SDS011;29803;51.048;4.686;2024-02-26T01:39:43;2.47;;;1.45;;
44139;SDS011;29803;51.048;4.686;2024-02-26T01:42:13;4.47;;;1.70;;
44139;SDS011;29803;51.048;4.686;2024-02-26T01:44:44;2.40;;;1.48;;
44139;SDS011;29803;51.048;4.686;2024-02-26T01:47:14;3.35;;;1.70;;
44139;SDS011;29803;51.048;4.686;2024-02-26T01:49:45;3.58;;;1.75;;
44139;SDS011;29803;51.048;4.686;2024-02-26T01:52:16;3.35;;;2.00;;
44139;SDS011;29803;51.048;4.686;2024-02-26T01:54:47;3.28;;;1.88;;
44139;SDS011;29803;51.048;4.686;2024-02-26T01:57:18;3.58;;;1.90;;
44139;SDS011;29803;51.048;4.686;2024-02-26T01:59:49;3.65;;;1.92;;
44139;SDS011;29803;51.048;4.686;2024-02-26T02:02:19;7.93;;;2.15;;
44139;SDS011;29803;51.048;4.686;2024-02-26T02:04:50;5.10;;;2.10;;
44139;SDS011;29803;51.048;4.686;2024-02-26T02:07:21;5.65;;;2.20;;
44139;SDS011;29803;51.048;4.686;2024-02-26T02:09:53;6.32;;;2.70;;
44139;SDS011;29803;51.048;4.686;2024-02-26T02:12:24;3.85;;;2.10;;
44139;SDS011;29803;51.048;4.686;2024-02-26T02:14:55;4.93;;;2.00;;
44139;SDS011;29803;51.048;4.686;2024-02-26T02:17:26;7.82;;;2.58;;
44139;SDS011;29803;51.048;4.686;2024-02-26T02:20:08;5.40;;;2.60;;
44139;SDS011;29803;51.048;4.686;2024-02-26T02:22:45;6.30;;;2.47;;
44139;SDS011;29803;51.048;4.686;2024-02-26T02:25:35;3.70;;;2.10;;
44139;SDS011;29803;51.048;4.686;2024-02-26T02:28:26;4.20;;;2.55;;
44139;SDS011;29803;51.048;4.686;2024-02-26T02:30:57;6.85;;;2.80;;
44139;SDS011;29803;51.048;4.686;2024-02-26T02:33:29;4.78;;;3.10;;
44139;SDS011;29803;51.048;4.686;2024-02-26T02:35:59;10.25;;;2.47;;
44139;SDS011;29803;51.048;4.686;2024-02-26T02:38:30;4.22;;;2.50;;
44139;SDS011;29803;51.048;4.686;2024-02-26T02:41:01;5.55;;;2.63;;
44139;SDS011;29803;51.048;4.686;2024-02-26T02:43:32;6.28;;;2.58;;
44139;SDS011;29803;51.048;4.686;2024-02-26T02:46:02;6.60;;;2.80;;
44139;SDS011;29803;51.048;4.686;2024-02-26T02:48:33;6.57;;;2.75;;
44139;SDS011;29803;51.048;4.686;2024-02-26T02:51:04;9.20;;;3.05;;
44139;SDS011;29803;51.048;4.686;2024-02-26T02:53:34;4.90;;;2.78;;
44139;SDS011;29803;51.048;4.686;2024-02-26T02:56:05;5.80;;;2.78;;
44139;SDS011;29803;51.048;4.686;2024-02-26T02:58:36;3.85;;;2.85;;
44139;SDS011;29803;51.048;4.686;2024-02-26T03:01:07;5.47;;;3.08;;
44139;SDS011;29803;51.048;4.686;2024-02-26T03:03:37;4.72;;;3.20;;
44139;SDS011;29803;51.048;4.686;2024-02-26T03:06:08;6.40;;;3.33;;
44139;SDS011;29803;51.048;4.686;2024-02-26T03:08:39;4.88;;;3.13;;
44139;SDS011;29803;51.048;4.686;2024-02-26T03:11:13;5.03;;;2.92;;
44139;SDS011;29803;51.048;4.686;2024-02-26T03:13:45;7.50;;;4.00;;
44139;SDS011;29803;51.048;4.686;2024-02-26T03:16:16;8.35;;;3.60;;
44139;SDS011;29803;51.048;4.686;2024-02-26T03:18:47;6.70;;;3.90;;
44139;SDS011;29803;51.048;4.686;2024-02-26T03:21:18;5.88;;;3.53;;
44139;SDS011;29803;51.048;4.686;2024-02-26T03:23:49;5.43;;;3.45;;
44139;SDS011;29803;51.048;4.686;2024-02-26T03:26:19;6.00;;;4.05;;
44139;SDS011;29803;51.048;4.686;2024-02-26T03:28:50;11.25;;;4.30;;
44139;SDS011;29803;51.048;4.686;2024-02-26T03:31:21;10.30;;;4.53;;
44139;SDS011;29803;51.048;4.686;2024-02-26T03:33:51;9.23;;;4.30;;
44139;SDS011;29803;51.048;4.686;2024-02-26T03:36:22;8.38;;;5.53;;
44139;SDS011;29803;51.048;4.686;2024-02-26T03:38:53;11.77;;;5.28;;
44139;SDS011;29803;51.048;4.686;2024-02-26T03:41:23;15.15;;;7.68;;
44139;SDS011;29803;51.048;4.686;2024-02-26T03:43:54;9.95;;;5.20;;
44139;SDS011;29803;51.048;4.686;2024-02-26T03:46:24;10.02;;;5.80;;
44139;SDS011;29803;51.048;4.686;2024-02-26T03:48:55;12.90;;;5.65;;
44139;SDS011;29803;51.048;4.686;2024-02-26T03:51:25;12.85;;;5.90;;
44139;SDS011;29803;51.048;4.686;2024-02-26T03:53:58;10.98;;;4.53;;
44139;SDS011;29803;51.048;4.686;2024-02-26T03:56:28;7.13;;;4.53;;
44139;SDS011;29803;51.048;4.686;2024-02-26T03:58:59;10.00;;;5.43;;
44139;SDS011;29803;51.048;4.686;2024-02-26T04:01:32;12.45;;;5.45;;
44139;SDS011;29803;51.048;4.686;2024-02-26T04:04:02;9.05;;;5.28;;
44139;SDS011;29803;51.048;4.686;2024-02-26T04:06:33;10.13;;;5.55;;
44139;SDS011;29803;51.048;4.686;2024-02-26T04:09:03;11.07;;;6.10;;
44139;SDS011;29803;51.048;4.686;2024-02-26T04:11:34;11.98;;;6.32;;
44139;SDS011;29803;51.048;4.686;2024-02-26T04:14:04;12.50;;;6.88;;
44139;SDS011;29803;51.048;4.686;2024-02-26T04:16:38;16.30;;;7.45;;
44139;SDS011;29803;51.048;4.686;2024-02-26T04:19:09;12.30;;;6.85;;
44139;SDS011;29803;51.048;4.686;2024-02-26T04:21:40;14.15;;;7.43;;
44139;SDS011;29803;51.048;4.686;2024-02-26T04:24:11;22.55;;;8.95;;
44139;SDS011;29803;51.048;4.686;2024-02-26T04:26:41;14.50;;;8.30;;
44139;SDS011;29803;51.048;4.686;2024-02-26T04:29:12;15.75;;;8.63;;
44139;SDS011;29803;51.048;4.686;2024-02-26T04:31:42;17.02;;;9.23;;
44139;SDS011;29803;51.048;4.686;2024-02-26T04:34:13;21.05;;;10.00;;
44139;SDS011;29803;51.048;4.686;2024-02-26T04:36:44;13.82;;;8.40;;
44139;SDS011;29803;51.048;4.686;2024-02-26T04:39:14;17.73;;;9.32;;
44139;SDS011;29803;51.048;4.686;2024-02-26T04:41:45;16.92;;;9.15;;
44139;SDS011;29803;51.048;4.686;2024-02-26T04:44:15;20.15;;;10.25;;
44139;SDS011;29803;51.048;4.686;2024-02-26T04:46:45;17.80;;;9.65;;
44139;SDS011;29803;51.048;4.686;2024-02-26T04:49:16;18.23;;;10.18;;
44139;SDS011;29803;51.048;4.686;2024-02-26T04:51:46;16.77;;;10.18;;
44139;SDS011;29803;51.048;4.686;2024-02-26T04:54:18;18.35;;;10.93;;
44139;SDS011;29803;51.048;4.686;2024-02-26T04:56:48;19.80;;;10.27;;
44139;SDS011;29803;51.048;4.686;2024-02-26T04:59:19;18.02;;;10.38;;
44139;SDS011;29803;51.048;4.686;2024-02-26T05:01:49;17.30;;;9.98;;
44139;SDS011;29803;51.048;4.686;2024-02-26T05:04:22;15.77;;;9.55;;
44139;SDS011;29803;51.048;4.686;2024-02-26T05:06:53;16.67;;;10.27;;
44139;SDS011;29803;51.048;4.686;2024-02-26T05:09:23;17.73;;;10.00;;
44139;SDS011;29803;51.048;4.686;2024-02-26T05:11:54;16.38;;;9.52;;
44139;SDS011;29803;51.048;4.686;2024-02-26T05:14:24;16.83;;;9.60;;
44139;SDS011;29803;51.048;4.686;2024-02-26T05:16:55;19.45;;;10.20;;
44139;SDS011;29803;51.048;4.686;2024-02-26T05:19:26;14.38;;;8.80;;
44139;SDS011;29803;51.048;4.686;2024-02-26T05:21:56;16.98;;;9.32;;
44139;SDS011;29803;51.048;4.686;2024-02-26T05:24:27;15.23;;;9.52;;
44139;SDS011;29803;51.048;4.686;2024-02-26T05:26:59;13.48;;;8.50;;
44139;SDS011;29803;51.048;4.686;2024-02-26T05:29:30;13.82;;;8.48;;
44139;SDS011;29803;51.048;4.686;2024-02-26T05:32:01;14.13;;;8.55;;
44139;SDS011;29803;51.048;4.686;2024-02-26T05:34:31;15.38;;;8.25;;
44139;SDS011;29803;51.048;4.686;2024-02-26T05:37:03;14.57;;;8.63;;
44139;SDS011;29803;51.048;4.686;2024-02-26T05:39:33;13.98;;;8.02;;
44139;SDS011;29803;51.048;4.686;2024-02-26T05:42:04;13.75;;;8.13;;
44139;SDS011;29803;51.048;4.686;2024-02-26T05:44:35;13.98;;;7.97;;
44139;SDS011;29803;51.048;4.686;2024-02-26T05:47:05;12.10;;;8.10;;
44139;SDS011;29803;51.048;4.686;2024-02-26T05:49:35;15.73;;;8.45;;
44139;SDS011;29803;51.048;4.686;2024-02-26T05:52:06;15.98;;;8.32;;
44139;SDS011;29803;51.048;4.686;2024-02-26T05:54:36;15.48;;;7.80;;
44139;SDS011;29803;51.048;4.686;2024-02-26T05:57:07;16.05;;;9.07;;
44139;SDS011;29803;51.048;4.686;2024-02-26T05:59:37;16.48;;;9.15;;
44139;SDS011;29803;51.048;4.686;2024-02-26T06:02:08;17.75;;;9.65;;
44139;SDS011;29803;51.048;4.686;2024-02-26T06:04:38;18.23;;;9.20;;
44139;SDS011;29803;51.048;4.686;2024-02-26T06:07:09;14.95;;;9.25;;
44139;SDS011;29803;51.048;4.686;2024-02-26T06:09:39;15.25;;;8.82;;
44139;SDS011;29803;51.048;4.686;2024-02-26T06:12:10;15.95;;;9.50;;
44139;SDS011;29803;51.048;4.686;2024-02-26T06:14:41;17.98;;;10.68;;
44139;SDS011;29803;51.048;4.686;2024-02-26T06:17:12;17.60;;;10.23;;
44139;SDS011;29803;51.048;4.686;2024-02-26T06:19:43;22.27;;;10.43;;
44139;SDS011;29803;51.048;4.686;2024-02-26T06:22:13;17.40;;;10.00;;
44139;SDS011;29803;51.048;4.686;2024-02-26T06:24:44;17.90;;;10.73;;
44139;SDS011;29803;51.048;4.686;2024-02-26T06:27:14;18.20;;;11.63;;
44139;SDS011;29803;51.048;4.686;2024-02-26T06:29:45;18.23;;;10.35;;
44139;SDS011;29803;51.048;4.686;2024-02-26T06:32:15;17.27;;;10.98;;
44139;SDS011;29803;51.048;4.686;2024-02-26T06:34:46;20.50;;;10.95;;
44139;SDS011;29803;51.048;4.686;2024-02-26T06:37:16;18.17;;;10.73;;
44139;SDS011;29803;51.048;4.686;2024-02-26T06:39:47;23.33;;;12.75;;
44139;SDS011;29803;51.048;4.686;2024-02-26T06:42:17;19.63;;;11.50;;
44139;SDS011;29803;51.048;4.686;2024-02-26T06:44:48;20.98;;;11.43;;
44139;SDS011;29803;51.048;4.686;2024-02-26T06:47:18;20.25;;;11.15;;
44139;SDS011;29803;51.048;4.686;2024-02-26T06:49:49;19.02;;;11.48;;
44139;SDS011;29803;51.048;4.686;2024-02-26T06:52:20;20.05;;;12.00;;
44139;SDS011;29803;51.048;4.686;2024-02-26T06:54:50;17.67;;;11.30;;
44139;SDS011;29803;51.048;4.686;2024-02-26T06:57:22;18.73;;;11.88;;
44139;SDS011;29803;51.048;4.686;2024-02-26T06:59:54;20.45;;;11.73;;
44139;SDS011;29803;51.048;4.686;2024-02-26T07:02:24;23.20;;;11.55;;
44139;SDS011;29803;51.048;4.686;2024-02-26T07:04:55;21.23;;;11.68;;
44139;SDS011;29803;51.048;4.686;2024-02-26T07:07:26;22.73;;;11.90;;
44139;SDS011;29803;51.048;4.686;2024-02-26T07:09:56;19.63;;;10.88;;
44139;SDS011;29803;51.048;4.686;2024-02-26T07:12:27;19.63;;;11.68;;
44139;SDS011;29803;51.048;4.686;2024-02-26T07:14:58;17.23;;;11.27;;
44139;SDS011;29803;51.048;4.686;2024-02-26T07:17:28;17.45;;;11.13;;
44139;SDS011;29803;51.048;4.686;2024-02-26T07:19:59;19.40;;;11.43;;
44139;SDS011;29803;51.048;4.686;2024-02-26T07:22:30;19.80;;;12.27;;
44139;SDS011;29803;51.048;4.686;2024-02-26T07:25:00;17.38;;;11.43;;
44139;SDS011;29803;51.048;4.686;2024-02-26T07:27:31;17.00;;;11.02;;
44139;SDS011;29803;51.048;4.686;2024-02-26T07:30:01;19.50;;;12.23;;
44139;SDS011;29803;51.048;4.686;2024-02-26T07:32:32;17.42;;;10.65;;
44139;SDS011;29803;51.048;4.686;2024-02-26T07:35:03;16.95;;;10.32;;
44139;SDS011;29803;51.048;4.686;2024-02-26T07:37:34;16.52;;;10.10;;
44139;SDS011;29803;51.048;4.686;2024-02-26T07:40:05;19.17;;;10.90;;
44139;SDS011;29803;51.048;4.686;2024-02-26T07:42:36;17.38;;;10.90;;
44139;SDS011;29803;51.048;4.686;2024-02-26T07:45:06;20.15;;;11.05;;
44139;SDS011;29803;51.048;4.686;2024-02-26T07:47:37;17.92;;;10.90;;
44139;SDS011;29803;51.048;4.686;2024-02-26T07:50:10;17.45;;;10.48;;
44139;SDS011;29803;51.048;4.686;2024-02-26T07:52:42;18.30;;;10.30;;
44139;SDS011;29803;51.048;4.686;2024-02-26T07:55:12;19.25;;;11.10;;
44139;SDS011;29803;51.048;4.686;2024-02-26T07:57:43;16.63;;;10.02;;
44139;SDS011;29803;51.048;4.686;2024-02-26T08:00:14;16.77;;;9.95;;
44139;SDS011;29803;51.048;4.686;2024-02-26T08:02:46;16.05;;;9.73;;
44139;SDS011;29803;51.048;4.686;2024-02-26T08:05:17;14.90;;;9.35;;
44139;SDS011;29803;51.048;4.686;2024-02-26T08:07:48;15.48;;;9.73;;
44139;SDS011;29803;51.048;4.686;2024-02-26T08:10:18;15.05;;;9.18;;
44139;SDS011;29803;51.048;4.686;2024-02-26T08:12:49;16.92;;;9.50;;
44139;SDS011;29803;51.048;4.686;2024-02-26T08:15:19;14.85;;;9.10;;
44139;SDS011;29803;51.048;4.686;2024-02-26T08:17:50;16.75;;;8.85;;
44139;SDS011;29803;51.048;4.686;2024-02-26T08:20:20;14.98;;;9.43;;
44139;SDS011;29803;51.048;4.686;2024-02-26T08:22:51;16.52;;;8.70;;
44139;SDS011;29803;51.048;4.686;2024-02-26T08:25:22;13.60;;;8.55;;
44139;SDS011;29803;51.048;4.686;2024-02-26T08:27:52;14.88;;;8.80;;
44139;SDS011;29803;51.048;4.686;2024-02-26T08:30:23;13.02;;;8.55;;
44139;SDS011;29803;51.048;4.686;2024-02-26T08:32:53;14.00;;;8.48;;
44139;SDS011;29803;51.048;4.686;2024-02-26T08:35:24;17.13;;;8.90;;
44139;SDS011;29803;51.048;4.686;2024-02-26T08:37:54;16.20;;;8.90;;
44139;SDS011;29803;51.048;4.686;2024-02-26T08:40:25;17.10;;;8.48;;
44139;SDS011;29803;51.048;4.686;2024-02-26T08:42:55;13.27;;;8.50;;
44139;SDS011;29803;51.048;4.686;2024-02-26T08:45:26;20.50;;;10.00;;
44139;SDS011;29803;51.048;4.686;2024-02-26T08:47:57;16.23;;;9.52;;
44139;SDS011;29803;51.048;4.686;2024-02-26T08:50:29;19.40;;;10.32;;
44139;SDS011;29803;51.048;4.686;2024-02-26T08:52:59;17.17;;;9.57;;
44139;SDS011;29803;51.048;4.686;2024-02-26T08:55:31;18.52;;;10.25;;
44139;SDS011;29803;51.048;4.686;2024-02-26T08:58:01;19.73;;;10.38;;
44139;SDS011;29803;51.048;4.686;2024-02-26T09:00:32;16.00;;;9.20;;
44139;SDS011;29803;51.048;4.686;2024-02-26T09:03:02;16.23;;;10.10;;
44139;SDS011;29803;51.048;4.686;2024-02-26T09:05:33;15.23;;;9.02;;
44139;SDS011;29803;51.048;4.686;2024-02-26T09:08:04;15.23;;;9.00;;
44139;SDS011;29803;51.048;4.686;2024-02-26T09:10:35;15.45;;;8.82;;
44139;SDS011;29803;51.048;4.686;2024-02-26T09:13:05;14.32;;;8.93;;
44139;SDS011;29803;51.048;4.686;2024-02-26T09:15:36;16.95;;;9.10;;
44139;SDS011;29803;51.048;4.686;2024-02-26T09:18:06;15.85;;;10.13;;
44139;SDS011;29803;51.048;4.686;2024-02-26T09:20:37;16.52;;;10.02;;
44139;SDS011;29803;51.048;4.686;2024-02-26T09:23:08;18.15;;;10.13;;
44139;SDS011;29803;51.048;4.686;2024-02-26T09:25:39;17.60;;;10.55;;
44139;SDS011;29803;51.048;4.686;2024-02-26T09:28:10;16.95;;;10.18;;
44139;SDS011;29803;51.048;4.686;2024-02-26T09:30:40;20.70;;;11.05;;
44139;SDS011;29803;51.048;4.686;2024-02-26T09:33:11;16.40;;;10.45;;
44139;SDS011;29803;51.048;4.686;2024-02-26T09:35:43;17.45;;;10.05;;
44139;SDS011;29803;51.048;4.686;2024-02-26T09:38:13;16.40;;;10.27;;
44139;SDS011;29803;51.048;4.686;2024-02-26T09:40:44;17.92;;;10.35;;
44139;SDS011;29803;51.048;4.686;2024-02-26T09:43:15;17.08;;;10.45;;
44139;SDS011;29803;51.048;4.686;2024-02-26T09:45:50;19.98;;;10.88;;
44139;SDS011;29803;51.048;4.686;2024-02-26T09:48:23;17.92;;;10.32;;
44139;SDS011;29803;51.048;4.686;2024-02-26T09:50:54;18.10;;;10.18;;
44139;SDS011;29803;51.048;4.686;2024-02-26T09:53:24;15.52;;;9.60;;
44139;SDS011;29803;51.048;4.686;2024-02-26T09:55:54;16.38;;;9.52;;
44139;SDS011;29803;51.048;4.686;2024-02-26T09:58:27;17.08;;;10.20;;
44139;SDS011;29803;51.048;4.686;2024-02-26T10:00:59;16.67;;;10.00;;
44139;SDS011;29803;51.048;4.686;2024-02-26T10:03:34;14.63;;;9.43;;
44139;SDS011;29803;51.048;4.686;2024-02-26T10:06:10;16.50;;;9.38;;
44139;SDS011;29803;51.048;4.686;2024-02-26T10:08:41;14.77;;;9.23;;
44139;SDS011;29803;51.048;4.686;2024-02-26T10:11:13;12.80;;;8.80;;
44139;SDS011;29803;51.048;4.686;2024-02-26T10:13:44;17.00;;;9.60;;
44139;SDS011;29803;51.048;4.686;2024-02-26T10:16:15;14.20;;;8.95;;
44139;SDS011;29803;51.048;4.686;2024-02-26T10:18:48;15.23;;;8.77;;
44139;SDS011;29803;51.048;4.686;2024-02-26T10:21:19;14.02;;;8.50;;
44139;SDS011;29803;51.048;4.686;2024-02-26T10:23:51;14.57;;;8.13;;
44139;SDS011;29803;51.048;4.686;2024-02-26T10:26:22;13.82;;;8.43;;
44139;SDS011;29803;51.048;4.686;2024-02-26T10:28:52;10.68;;;7.40;;
44139;SDS011;29803;51.048;4.686;2024-02-26T10:31:23;13.05;;;7.28;;
44139;SDS011;29803;51.048;4.686;2024-02-26T10:33:55;9.75;;;6.43;;
44139;SDS011;29803;51.048;4.686;2024-02-26T10:36:26;13.32;;;6.32;;
44139;SDS011;29803;51.048;4.686;2024-02-26T10:38:57;9.48;;;5.00;;
44139;SDS011;29803;51.048;4.686;2024-02-26T10:41:27;8.98;;;6.40;;
44139;SDS011;29803;51.048;4.686;2024-02-26T10:43:58;8.57;;;5.63;;
44139;SDS011;29803;51.048;4.686;2024-02-26T10:46:28;8.80;;;5.20;;
44139;SDS011;29803;51.048;4.686;2024-02-26T10:48:59;7.03;;;4.93;;
44139;SDS011;29803;51.048;4.686;2024-02-26T10:51:30;6.15;;;4.38;;
44139;SDS011;29803;51.048;4.686;2024-02-26T10:54:01;7.55;;;5.18;;
44139;SDS011;29803;51.048;4.686;2024-02-26T10:56:37;7.45;;;5.28;;
44139;SDS011;29803;51.048;4.686;2024-02-26T10:59:11;7.30;;;5.30;;
44139;SDS011;29803;51.048;4.686;2024-02-26T11:01:42;11.30;;;6.55;;
44139;SDS011;29803;51.048;4.686;2024-02-26T11:04:16;11.55;;;7.53;;
44139;SDS011;29803;51.048;4.686;2024-02-26T11:06:48;10.23;;;6.18;;
44139;SDS011;29803;51.048;4.686;2024-02-26T11:09:19;9.98;;;6.72;;
44139;SDS011;29803;51.048;4.686;2024-02-26T11:11:50;10.02;;;6.28;;
44139;SDS011;29803;51.048;4.686;2024-02-26T11:14:24;8.98;;;5.90;;
44139;SDS011;29803;51.048;4.686;2024-02-26T11:16:56;12.73;;;6.18;;
44139;SDS011;29803;51.048;4.686;2024-02-26T11:19:28;9.27;;;6.13;;
44139;SDS011;29803;51.048;4.686;2024-02-26T11:22:00;9.55;;;6.50;;
44139;SDS011;29803;51.048;4.686;2024-02-26T11:24:31;10.07;;;6.82;;
44139;SDS011;29803;51.048;4.686;2024-02-26T11:27:02;10.30;;;6.45;;
44139;SDS011;29803;51.048;4.686;2024-02-26T11:32:22;10.80;;;7.20;;
44139;SDS011;29803;51.048;4.686;2024-02-26T11:34:53;11.60;;;7.38;;
44139;SDS011;29803;51.048;4.686;2024-02-26T11:37:24;10.45;;;6.95;;
44139;SDS011;29803;51.048;4.686;2024-02-26T11:39:55;10.38;;;6.80;;
44139;SDS011;29803;51.048;4.686;2024-02-26T11:42:29;10.60;;;6.97;;
44139;SDS011;29803;51.048;4.686;2024-02-26T11:45:00;13.27;;;8.30;;
44139;SDS011;29803;51.048;4.686;2024-02-26T11:47:31;12.00;;;6.88;;
44139;SDS011;29803;51.048;4.686;2024-02-26T11:58:56;11.60;;;7.03;;
44139;SDS011;29803;51.048;4.686;2024-02-26T12:01:37;11.02;;;7.80;;
44139;SDS011;29803;51.048;4.686;2024-02-26T12:04:15;10.95;;;7.45;;
44139;SDS011;29803;51.048;4.686;2024-02-26T12:06:47;15.27;;;7.75;;
44139;SDS011;29803;51.048;4.686;2024-02-26T12:09:30;11.18;;;7.45;;
44139;SDS011;29803;51.048;4.686;2024-02-26T12:12:03;14.35;;;7.30;;
44139;SDS011;29803;51.048;4.686;2024-02-26T12:17:25;19.30;;;9.80;;
44139;SDS011;29803;51.048;4.686;2024-02-26T12:22:39;13.57;;;8.00;;
44139;SDS011;29803;51.048;4.686;2024-02-26T12:25:10;14.20;;;8.40;;
44139;SDS011;29803;51.048;4.686;2024-02-26T12:27:41;14.20;;;8.77;;
44139;SDS011;29803;51.048;4.686;2024-02-26T12:30:11;13.00;;;8.32;;
44139;SDS011;29803;51.048;4.686;2024-02-26T12:32:42;14.23;;;9.15;;
44139;SDS011;29803;51.048;4.686;2024-02-26T12:35:13;12.30;;;8.50;;
44139;SDS011;29803;51.048;4.686;2024-02-26T12:37:44;14.23;;;8.93;;
44139;SDS011;29803;51.048;4.686;2024-02-26T12:40:15;12.30;;;8.40;;
44139;SDS011;29803;51.048;4.686;2024-02-26T12:42:45;16.50;;;9.27;;
44139;SDS011;29803;51.048;4.686;2024-02-26T12:45:16;14.15;;;8.57;;
44139;SDS011;29803;51.048;4.686;2024-02-26T12:47:47;14.65;;;9.63;;
44139;SDS011;29803;51.048;4.686;2024-02-26T12:50:18;15.93;;;10.02;;
44139;SDS011;29803;51.048;4.686;2024-02-26T12:52:48;17.23;;;9.45;;
44139;SDS011;29803;51.048;4.686;2024-02-26T12:55:21;14.98;;;9.95;;
44139;SDS011;29803;51.048;4.686;2024-02-26T12:57:52;18.77;;;9.60;;
44139;SDS011;29803;51.048;4.686;2024-02-26T13:00:25;17.85;;;9.90;;
44139;SDS011;29803;51.048;4.686;2024-02-26T13:02:56;16.52;;;9.45;;
44139;SDS011;29803;51.048;4.686;2024-02-26T13:05:29;19.98;;;11.15;;
44139;SDS011;29803;51.048;4.686;2024-02-26T13:08:00;20.75;;;10.95;;
44139;SDS011;29803;51.048;4.686;2024-02-26T13:10:31;19.17;;;10.48;;
44139;SDS011;29803;51.048;4.686;2024-02-26T13:13:04;18.13;;;11.18;;
44139;SDS011;29803;51.048;4.686;2024-02-26T13:15:35;19.38;;;10.82;;
44139;SDS011;29803;51.048;4.686;2024-02-26T13:18:10;19.50;;;10.98;;
44139;SDS011;29803;51.048;4.686;2024-02-26T13:20:42;20.40;;;10.98;;
44139;SDS011;29803;51.048;4.686;2024-02-26T13:23:12;19.77;;;11.45;;
44139;SDS011;29803;51.048;4.686;2024-02-26T13:25:43;21.73;;;11.60;;
44139;SDS011;29803;51.048;4.686;2024-02-26T13:28:14;22.38;;;12.27;;
44139;SDS011;29803;51.048;4.686;2024-02-26T13:30:50;20.27;;;11.55;;
44139;SDS011;29803;51.048;4.686;2024-02-26T13:33:23;23.40;;;11.60;;
44139;SDS011;29803;51.048;4.686;2024-02-26T13:35:55;20.60;;;11.63;;
44139;SDS011;29803;51.048;4.686;2024-02-26T13:38:27;19.90;;;11.20;;
44139;SDS011;29803;51.048;4.686;2024-02-26T13:40:58;20.70;;;11.40;;
44139;SDS011;29803;51.048;4.686;2024-02-26T13:43:28;20.45;;;11.30;;
44139;SDS011;29803;51.048;4.686;2024-02-26T13:45:59;20.52;;;10.77;;
44139;SDS011;29803;51.048;4.686;2024-02-26T13:48:29;22.70;;;10.65;;
44139;SDS011;29803;51.048;4.686;2024-02-26T13:51:00;23.40;;;11.25;;
44139;SDS011;29803;51.048;4.686;2024-02-26T13:53:30;23.88;;;12.55;;
44139;SDS011;29803;51.048;4.686;2024-02-26T13:56:02;24.27;;;11.40;;
44139;SDS011;29803;51.048;4.686;2024-02-26T13:58:35;24.50;;;12.18;;
44139;SDS011;29803;51.048;4.686;2024-02-26T14:01:06;27.08;;;12.10;;
44139;SDS011;29803;51.048;4.686;2024-02-26T14:03:36;23.27;;;12.02;;
44139;SDS011;29803;51.048;4.686;2024-02-26T14:06:07;26.98;;;12.70;;
44139;SDS011;29803;51.048;4.686;2024-02-26T14:08:37;27.95;;;13.55;;
44139;SDS011;29803;51.048;4.686;2024-02-26T14:11:08;27.83;;;13.25;;
44139;SDS011;29803;51.048;4.686;2024-02-26T14:13:38;24.98;;;12.20;;
44139;SDS011;29803;51.048;4.686;2024-02-26T14:16:09;25.08;;;12.43;;
44139;SDS011;29803;51.048;4.686;2024-02-26T14:18:40;26.95;;;12.75;;
44139;SDS011;29803;51.048;4.686;2024-02-26T14:21:14;26.42;;;13.40;;
44139;SDS011;29803;51.048;4.686;2024-02-26T14:23:44;28.77;;;12.63;;
44139;SDS011;29803;51.048;4.686;2024-02-26T14:26:15;24.90;;;11.77;;
44139;SDS011;29803;51.048;4.686;2024-02-26T14:28:46;27.30;;;13.32;;
44139;SDS011;29803;51.048;4.686;2024-02-26T14:31:17;24.40;;;12.30;;
44139;SDS011;29803;51.048;4.686;2024-02-26T14:33:48;31.52;;;13.13;;
44139;SDS011;29803;51.048;4.686;2024-02-26T14:36:20;27.27;;;12.40;;
44139;SDS011;29803;51.048;4.686;2024-02-26T14:38:51;22.38;;;11.93;;
44139;SDS011;29803;51.048;4.686;2024-02-26T14:41:22;24.65;;;11.32;;
44139;SDS011;29803;51.048;4.686;2024-02-26T14:43:52;19.65;;;10.23;;
44139;SDS011;29803;51.048;4.686;2024-02-26T14:46:23;21.55;;;10.55;;
44139;SDS011;29803;51.048;4.686;2024-02-26T14:48:53;20.30;;;10.98;;
44139;SDS011;29803;51.048;4.686;2024-02-26T14:51:24;20.08;;;10.27;;
44139;SDS011;29803;51.048;4.686;2024-02-26T14:53:54;20.13;;;10.02;;
44139;SDS011;29803;51.048;4.686;2024-02-26T14:56:25;20.65;;;9.52;;
44139;SDS011;29803;51.048;4.686;2024-02-26T14:58:55;22.65;;;10.25;;
44139;SDS011;29803;51.048;4.686;2024-02-26T15:01:26;21.08;;;9.82;;
44139;SDS011;29803;51.048;4.686;2024-02-26T15:03:57;24.20;;;9.52;;
44139;SDS011;29803;51.048;4.686;2024-02-26T15:06:27;19.23;;;9.20;;
44139;SDS011;29803;51.048;4.686;2024-02-26T15:08:58;17.40;;;8.55;;
44139;SDS011;29803;51.048;4.686;2024-02-26T15:11:29;20.02;;;9.45;;
44139;SDS011;29803;51.048;4.686;2024-02-26T15:13:59;16.50;;;8.65;;